Huvudsida
METAR-TAF:

METAR-TAF

Flygplatser :

Karachi, Pakistan

latitud: 24-54N, longitud: 067-08E, höjd: 21 m

Aktuellt väderrapport

Denna rapport gjordes för 19 minuter sedan, klockan 00:55 UTC
Vind 4 kt från nord/nordost
Temperatur 12°C
Fuktighet 38%
Tryck 1017 hPa
Sikt: 6000 m

METAR: OPKC 200055Z 02004KT 6000 NSC 12/M02 Q1017 NOSIG METAR

Tid: 06:14 (01:14 UTC)

Väderprognos

Denna rapport gjordes för 3 timmar och 44 minuter sedan, klockan 21:30 UTC
Prognos gäller från 20 kl. 00 UTC till 21 kl. 06 UTC
Vind 5 kt från nordväst i byarna ända upp till 15 kt
Sikt: 6000 m
Temporärt
från 20 kl. 00 UTC till 20 kl. 04 UTC
Vind 5 kt från nordost
Sikt: 3000 m
rök
Temporärt
från 20 kl. 12 UTC till 20 kl. 16 UTC
Vind 7 kt från väst/sydväst
Sikt: 4000 m
rök
Temporärt
från 21 kl. 00 UTC till 21 kl. 04 UTC
Vind 5 kt från nord/nordost
Sikt: 3000 m
rök

TAF: OPKC 192130Z 2000/2106 32005G15KT 6000 NSC TEMPO 2000/2004 05005KT 3000 FU NSC TEMPO 2012/2016 24007KT 4000 FU NSC TEMPO 2100/2104 02005KT 3000 FU NSC

Aktuella väderrapporter och prognoser från 4000 flygplatser (METAR- och TAF-rapporter).

De tillgängliga stationerna syns som gula och röda prickar på kartan.

För musen över prickarna för att se namnen på stationerna.

Klicka sedan för att få väderrapporter och prognoser.

För att ändra kartan: Klicka på de gröna knapparna med ett svart kors på för att zooma in; den gröna knappen med ett streck på för att zooma ut; eller på de gröna pilarna för angränsande kartor.


METAR-TAF: